Accueil
METAR-TAF:

METAR-TAF

Aéroports :

Aéroport de Polokwane/Pietersburg

Pietersburg, Afrique du Sud

latitude: 23-50-43S, longitude: 29-27-31E, altitude: 1242 m

Observation

Le bulletin a été fait il y a 28 minutes, à 14:00 UTC
Vent 6 kt de est/sud-est
Température 15°C
Humidité 72%
Pression 1035 hPa
Visibilité 10 km ou plus
Ciel couvert à une hauteur de 2000 ft

METAR: FAPP 231400Z 12006KT 9999 OVC020 15/10 Q1035 NOSIG

Heure: 16:28 (14:28 UTC)

Prévision

Le bulletin a été fait il y a 5 heures et 28 minutes, à 09:00 UTC
Prévision valable du 23 à 10 UTC au 23 à 18 UTC
Vent 16 kt de est
Visibilité 10 km ou plus
pas de nuages en-dessous de 1500 mètres et pas de cumulonimbus.

TAF: FAPP 230900Z 2310/2318 10016KT CAVOK TX21/2312Z TN11/2318Z

Observations et prévisions météorologiques de plus de 4000 aéroports (messages METAR et TAF).

Les stations disponibles sont représentées par des disques jaunes et rouges sur la carte.

Passer la souris dessus pour voir le nom de la station.

Cliquer dessus pour voir les observations et prévisions météorologiques.

Pour changer de carte: cliquez sur les boutons verts avec une croix noire pour zoomer, sur le bouton vert avec un tiret pour effectuer un zoom arrière, ou sur les flèches vertes pour les cartes adjacentes.


METAR-TAF: